sensor_id;sensor_type;location;lat;lon;timestamp;P1;durP1;ratioP1;P2;durP2;ratioP2
42084;SDS011;27746;52.228;20.890;2023-09-30T00:01:43;17.10;;;8.55;;
42084;SDS011;27746;52.228;20.890;2023-09-30T00:04:10;18.58;;;8.93;;
42084;SDS011;27746;52.228;20.890;2023-09-30T00:06:37;14.73;;;8.23;;
42084;SDS011;27746;52.228;20.890;2023-09-30T00:09:04;20.10;;;9.73;;
42084;SDS011;27746;52.228;20.890;2023-09-30T00:11:32;15.18;;;8.90;;
42084;SDS011;27746;52.228;20.890;2023-09-30T00:13:59;19.08;;;10.02;;
42084;SDS011;27746;52.228;20.890;2023-09-30T00:16:28;13.45;;;8.48;;
42084;SDS011;27746;52.228;20.890;2023-09-30T00:18:55;14.15;;;9.73;;
42084;SDS011;27746;52.228;20.890;2023-09-30T00:21:23;15.75;;;9.10;;
42084;SDS011;27746;52.228;20.890;2023-09-30T00:23:50;14.90;;;8.75;;
42084;SDS011;27746;52.228;20.890;2023-09-30T00:26:17;13.77;;;8.85;;
42084;SDS011;27746;52.228;20.890;2023-09-30T00:28:43;19.08;;;9.23;;
42084;SDS011;27746;52.228;20.890;2023-09-30T00:31:10;16.10;;;8.80;;
42084;SDS011;27746;52.228;20.890;2023-09-30T00:33:39;16.90;;;9.05;;
42084;SDS011;27746;52.228;20.890;2023-09-30T00:36:06;13.85;;;8.57;;
42084;SDS011;27746;52.228;20.890;2023-09-30T00:38:34;15.20;;;8.55;;
42084;SDS011;27746;52.228;20.890;2023-09-30T00:41:01;14.77;;;9.40;;
42084;SDS011;27746;52.228;20.890;2023-09-30T00:43:28;12.98;;;8.90;;
42084;SDS011;27746;52.228;20.890;2023-09-30T00:46:00;12.13;;;7.90;;
42084;SDS011;27746;52.228;20.890;2023-09-30T00:48:31;13.70;;;8.20;;
42084;SDS011;27746;52.228;20.890;2023-09-30T00:51:01;13.80;;;7.97;;
42084;SDS011;27746;52.228;20.890;2023-09-30T00:53:29;15.63;;;8.68;;
42084;SDS011;27746;52.228;20.890;2023-09-30T00:55:56;15.43;;;8.43;;
42084;SDS011;27746;52.228;20.890;2023-09-30T00:58:27;15.77;;;8.40;;
42084;SDS011;27746;52.228;20.890;2023-09-30T01:00:56;13.80;;;8.88;;
42084;SDS011;27746;52.228;20.890;2023-09-30T01:03:24;15.38;;;8.07;;
42084;SDS011;27746;52.228;20.890;2023-09-30T01:05:52;12.32;;;7.60;;
42084;SDS011;27746;52.228;20.890;2023-09-30T01:08:21;14.75;;;8.38;;
42084;SDS011;27746;52.228;20.890;2023-09-30T01:10:49;23.08;;;9.65;;
42084;SDS011;27746;52.228;20.890;2023-09-30T01:13:16;25.92;;;8.70;;
42084;SDS011;27746;52.228;20.890;2023-09-30T01:15:42;16.02;;;8.02;;
42084;SDS011;27746;52.228;20.890;2023-09-30T01:18:09;16.65;;;8.70;;
42084;SDS011;27746;52.228;20.890;2023-09-30T01:20:36;16.70;;;8.93;;
42084;SDS011;27746;52.228;20.890;2023-09-30T01:23:05;17.35;;;9.68;;
42084;SDS011;27746;52.228;20.890;2023-09-30T01:25:32;15.68;;;8.90;;
42084;SDS011;27746;52.228;20.890;2023-09-30T01:28:07;18.52;;;8.63;;
42084;SDS011;27746;52.228;20.890;2023-09-30T01:30:35;15.00;;;8.82;;
42084;SDS011;27746;52.228;20.890;2023-09-30T01:33:02;14.18;;;8.68;;
42084;SDS011;27746;52.228;20.890;2023-09-30T01:35:32;24.92;;;10.00;;
42084;SDS011;27746;52.228;20.890;2023-09-30T01:38:00;13.95;;;8.85;;
42084;SDS011;27746;52.228;20.890;2023-09-30T01:40:28;12.98;;;9.25;;
42084;SDS011;27746;52.228;20.890;2023-09-30T01:42:55;15.70;;;9.57;;
42084;SDS011;27746;52.228;20.890;2023-09-30T01:45:22;14.63;;;9.60;;
42084;SDS011;27746;52.228;20.890;2023-09-30T01:47:49;12.93;;;8.80;;
42084;SDS011;27746;52.228;20.890;2023-09-30T01:50:16;14.30;;;8.85;;
42084;SDS011;27746;52.228;20.890;2023-09-30T01:52:43;14.68;;;8.85;;
42084;SDS011;27746;52.228;20.890;2023-09-30T01:55:10;13.98;;;8.77;;
42084;SDS011;27746;52.228;20.890;2023-09-30T01:57:38;12.75;;;9.32;;
42084;SDS011;27746;52.228;20.890;2023-09-30T02:00:05;15.77;;;8.77;;
42084;SDS011;27746;52.228;20.890;2023-09-30T02:02:34;14.35;;;8.20;;
42084;SDS011;27746;52.228;20.890;2023-09-30T02:05:01;15.82;;;8.38;;
42084;SDS011;27746;52.228;20.890;2023-09-30T02:07:30;19.67;;;10.13;;
42084;SDS011;27746;52.228;20.890;2023-09-30T02:09:57;17.23;;;9.07;;
42084;SDS011;27746;52.228;20.890;2023-09-30T02:12:24;16.55;;;8.88;;
42084;SDS011;27746;52.228;20.890;2023-09-30T02:14:54;15.13;;;8.95;;
42084;SDS011;27746;52.228;20.890;2023-09-30T02:17:21;13.52;;;8.93;;
42084;SDS011;27746;52.228;20.890;2023-09-30T02:19:48;16.63;;;9.65;;
42084;SDS011;27746;52.228;20.890;2023-09-30T02:22:15;16.05;;;8.95;;
42084;SDS011;27746;52.228;20.890;2023-09-30T02:24:42;15.05;;;9.20;;
42084;SDS011;27746;52.228;20.890;2023-09-30T02:27:09;17.33;;;10.07;;
42084;SDS011;27746;52.228;20.890;2023-09-30T02:29:36;15.00;;;9.30;;
42084;SDS011;27746;52.228;20.890;2023-09-30T02:32:04;13.93;;;9.55;;
42084;SDS011;27746;52.228;20.890;2023-09-30T02:34:31;13.15;;;9.40;;
42084;SDS011;27746;52.228;20.890;2023-09-30T02:36:58;14.60;;;8.60;;
42084;SDS011;27746;52.228;20.890;2023-09-30T02:39:25;13.00;;;8.70;;
42084;SDS011;27746;52.228;20.890;2023-09-30T02:41:53;15.73;;;9.15;;
42084;SDS011;27746;52.228;20.890;2023-09-30T02:44:20;14.45;;;8.93;;
42084;SDS011;27746;52.228;20.890;2023-09-30T02:46:47;16.10;;;9.00;;
42084;SDS011;27746;52.228;20.890;2023-09-30T02:49:15;15.25;;;9.65;;
42084;SDS011;27746;52.228;20.890;2023-09-30T02:51:44;17.50;;;9.20;;
42084;SDS011;27746;52.228;20.890;2023-09-30T02:54:11;15.82;;;8.40;;
42084;SDS011;27746;52.228;20.890;2023-09-30T02:56:40;15.07;;;9.27;;
42084;SDS011;27746;52.228;20.890;2023-09-30T02:59:07;15.88;;;9.18;;
42084;SDS011;27746;52.228;20.890;2023-09-30T03:01:35;15.02;;;9.38;;
42084;SDS011;27746;52.228;20.890;2023-09-30T03:04:02;17.92;;;9.10;;
42084;SDS011;27746;52.228;20.890;2023-09-30T03:06:33;13.45;;;9.18;;
42084;SDS011;27746;52.228;20.890;2023-09-30T03:09:02;14.80;;;8.40;;
42084;SDS011;27746;52.228;20.890;2023-09-30T03:11:29;20.10;;;9.70;;
42084;SDS011;27746;52.228;20.890;2023-09-30T03:13:56;16.63;;;8.85;;
42084;SDS011;27746;52.228;20.890;2023-09-30T03:16:23;13.35;;;8.63;;
42084;SDS011;27746;52.228;20.890;2023-09-30T03:18:50;14.23;;;8.82;;
42084;SDS011;27746;52.228;20.890;2023-09-30T03:21:20;15.02;;;8.80;;
42084;SDS011;27746;52.228;20.890;2023-09-30T03:23:49;15.38;;;8.23;;
42084;SDS011;27746;52.228;20.890;2023-09-30T03:26:16;18.52;;;9.20;;
42084;SDS011;27746;52.228;20.890;2023-09-30T03:28:45;14.80;;;8.90;;
42084;SDS011;27746;52.228;20.890;2023-09-30T03:31:12;15.02;;;8.93;;
42084;SDS011;27746;52.228;20.890;2023-09-30T03:33:39;15.45;;;8.90;;
42084;SDS011;27746;52.228;20.890;2023-09-30T03:36:08;17.40;;;8.95;;
42084;SDS011;27746;52.228;20.890;2023-09-30T03:38:36;12.68;;;8.07;;
42084;SDS011;27746;52.228;20.890;2023-09-30T03:41:05;15.35;;;8.85;;
42084;SDS011;27746;52.228;20.890;2023-09-30T03:43:33;15.65;;;9.25;;
42084;SDS011;27746;52.228;20.890;2023-09-30T03:46:05;13.88;;;9.30;;
42084;SDS011;27746;52.228;20.890;2023-09-30T03:48:32;15.93;;;9.48;;
42084;SDS011;27746;52.228;20.890;2023-09-30T03:51:07;12.55;;;8.48;;
42084;SDS011;27746;52.228;20.890;2023-09-30T03:53:35;17.17;;;8.40;;
42084;SDS011;27746;52.228;20.890;2023-09-30T03:56:02;14.85;;;8.43;;
42084;SDS011;27746;52.228;20.890;2023-09-30T03:58:30;19.92;;;9.52;;
42084;SDS011;27746;52.228;20.890;2023-09-30T04:00:57;13.05;;;8.50;;
42084;SDS011;27746;52.228;20.890;2023-09-30T04:03:25;12.95;;;8.02;;
42084;SDS011;27746;52.228;20.890;2023-09-30T04:05:52;12.13;;;8.35;;
42084;SDS011;27746;52.228;20.890;2023-09-30T04:08:19;15.85;;;8.00;;
42084;SDS011;27746;52.228;20.890;2023-09-30T04:10:47;12.88;;;8.20;;
42084;SDS011;27746;52.228;20.890;2023-09-30T04:13:14;13.40;;;8.05;;
42084;SDS011;27746;52.228;20.890;2023-09-30T04:15:43;18.58;;;8.73;;
42084;SDS011;27746;52.228;20.890;2023-09-30T04:18:11;16.90;;;9.23;;
42084;SDS011;27746;52.228;20.890;2023-09-30T04:20:38;18.10;;;8.93;;
42084;SDS011;27746;52.228;20.890;2023-09-30T04:23:05;15.18;;;9.00;;
42084;SDS011;27746;52.228;20.890;2023-09-30T04:25:35;14.68;;;8.48;;
42084;SDS011;27746;52.228;20.890;2023-09-30T04:28:02;19.80;;;8.55;;
42084;SDS011;27746;52.228;20.890;2023-09-30T04:30:30;15.63;;;8.65;;
42084;SDS011;27746;52.228;20.890;2023-09-30T04:32:59;17.10;;;8.05;;
42084;SDS011;27746;52.228;20.890;2023-09-30T04:35:26;18.17;;;8.25;;
42084;SDS011;27746;52.228;20.890;2023-09-30T04:37:55;18.60;;;8.25;;
42084;SDS011;27746;52.228;20.890;2023-09-30T04:40:26;15.88;;;8.95;;
42084;SDS011;27746;52.228;20.890;2023-09-30T04:42:54;16.38;;;8.23;;
42084;SDS011;27746;52.228;20.890;2023-09-30T04:45:23;13.85;;;8.13;;
42084;SDS011;27746;52.228;20.890;2023-09-30T04:47:51;19.30;;;8.38;;
42084;SDS011;27746;52.228;20.890;2023-09-30T04:50:19;17.33;;;8.20;;
42084;SDS011;27746;52.228;20.890;2023-09-30T04:52:47;16.75;;;8.43;;
42084;SDS011;27746;52.228;20.890;2023-09-30T04:55:14;14.23;;;7.95;;
42084;SDS011;27746;52.228;20.890;2023-09-30T04:57:41;14.40;;;7.90;;
42084;SDS011;27746;52.228;20.890;2023-09-30T05:00:10;18.77;;;8.75;;
42084;SDS011;27746;52.228;20.890;2023-09-30T05:02:38;18.25;;;9.55;;
42084;SDS011;27746;52.228;20.890;2023-09-30T05:05:06;18.70;;;8.73;;
42084;SDS011;27746;52.228;20.890;2023-09-30T05:07:34;17.33;;;8.68;;
42084;SDS011;27746;52.228;20.890;2023-09-30T05:10:01;21.00;;;8.27;;
42084;SDS011;27746;52.228;20.890;2023-09-30T05:12:35;15.98;;;8.10;;
42084;SDS011;27746;52.228;20.890;2023-09-30T05:15:02;15.25;;;9.00;;
42084;SDS011;27746;52.228;20.890;2023-09-30T05:17:31;20.88;;;10.35;;
42084;SDS011;27746;52.228;20.890;2023-09-30T05:19:58;15.65;;;8.60;;
42084;SDS011;27746;52.228;20.890;2023-09-30T05:22:25;17.35;;;9.07;;
42084;SDS011;27746;52.228;20.890;2023-09-30T05:24:53;20.73;;;9.88;;
42084;SDS011;27746;52.228;20.890;2023-09-30T05:27:21;18.00;;;9.32;;
42084;SDS011;27746;52.228;20.890;2023-09-30T05:29:48;22.60;;;9.07;;
42084;SDS011;27746;52.228;20.890;2023-09-30T05:32:15;20.42;;;8.50;;
42084;SDS011;27746;52.228;20.890;2023-09-30T05:34:43;19.85;;;9.02;;
42084;SDS011;27746;52.228;20.890;2023-09-30T05:37:10;10.68;;;7.75;;
42084;SDS011;27746;52.228;20.890;2023-09-30T05:39:37;14.90;;;9.23;;
42084;SDS011;27746;52.228;20.890;2023-09-30T05:42:06;14.52;;;7.65;;
42084;SDS011;27746;52.228;20.890;2023-09-30T05:44:35;22.20;;;8.52;;
42084;SDS011;27746;52.228;20.890;2023-09-30T05:47:02;14.27;;;8.02;;
42084;SDS011;27746;52.228;20.890;2023-09-30T05:49:30;11.63;;;7.55;;
42084;SDS011;27746;52.228;20.890;2023-09-30T05:51:57;13.18;;;7.25;;
42084;SDS011;27746;52.228;20.890;2023-09-30T05:54:24;12.25;;;8.27;;
42084;SDS011;27746;52.228;20.890;2023-09-30T05:56:51;13.45;;;7.70;;
42084;SDS011;27746;52.228;20.890;2023-09-30T05:59:20;12.77;;;7.40;;
42084;SDS011;27746;52.228;20.890;2023-09-30T06:01:46;16.38;;;8.38;;
42084;SDS011;27746;52.228;20.890;2023-09-30T06:04:14;15.20;;;7.63;;
42084;SDS011;27746;52.228;20.890;2023-09-30T06:06:41;11.35;;;7.30;;
42084;SDS011;27746;52.228;20.890;2023-09-30T06:09:08;14.20;;;7.00;;
42084;SDS011;27746;52.228;20.890;2023-09-30T06:11:36;15.43;;;7.35;;
42084;SDS011;27746;52.228;20.890;2023-09-30T06:14:06;14.43;;;6.97;;
42084;SDS011;27746;52.228;20.890;2023-09-30T06:16:34;10.50;;;6.07;;
42084;SDS011;27746;52.228;20.890;2023-09-30T06:19:01;11.68;;;7.43;;
42084;SDS011;27746;52.228;20.890;2023-09-30T06:21:29;11.10;;;7.43;;
42084;SDS011;27746;52.228;20.890;2023-09-30T06:23:59;12.13;;;6.72;;
42084;SDS011;27746;52.228;20.890;2023-09-30T06:26:26;13.27;;;7.85;;
42084;SDS011;27746;52.228;20.890;2023-09-30T06:28:55;15.73;;;8.02;;
42084;SDS011;27746;52.228;20.890;2023-09-30T06:31:22;14.70;;;7.93;;
42084;SDS011;27746;52.228;20.890;2023-09-30T06:33:50;12.32;;;8.82;;
42084;SDS011;27746;52.228;20.890;2023-09-30T06:36:17;17.88;;;8.77;;
42084;SDS011;27746;52.228;20.890;2023-09-30T06:38:46;14.02;;;8.70;;
42084;SDS011;27746;52.228;20.890;2023-09-30T06:41:15;13.38;;;8.43;;
42084;SDS011;27746;52.228;20.890;2023-09-30T06:43:43;16.63;;;8.98;;
42084;SDS011;27746;52.228;20.890;2023-09-30T06:46:10;15.75;;;8.55;;
42084;SDS011;27746;52.228;20.890;2023-09-30T06:48:38;13.98;;;8.90;;
42084;SDS011;27746;52.228;20.890;2023-09-30T06:51:09;15.13;;;9.48;;
42084;SDS011;27746;52.228;20.890;2023-09-30T06:53:42;17.77;;;9.75;;
42084;SDS011;27746;52.228;20.890;2023-09-30T06:56:10;15.90;;;9.73;;
42084;SDS011;27746;52.228;20.890;2023-09-30T06:58:37;16.52;;;10.13;;
42084;SDS011;27746;52.228;20.890;2023-09-30T07:01:05;15.95;;;10.02;;
42084;SDS011;27746;52.228;20.890;2023-09-30T07:03:32;16.23;;;10.45;;
42084;SDS011;27746;52.228;20.890;2023-09-30T07:05:59;17.27;;;10.30;;
42084;SDS011;27746;52.228;20.890;2023-09-30T07:08:28;16.70;;;10.20;;
42084;SDS011;27746;52.228;20.890;2023-09-30T07:10:56;18.88;;;10.02;;
42084;SDS011;27746;52.228;20.890;2023-09-30T07:13:23;19.17;;;11.30;;
42084;SDS011;27746;52.228;20.890;2023-09-30T07:15:50;17.08;;;11.15;;
42084;SDS011;27746;52.228;20.890;2023-09-30T07:18:17;14.70;;;10.57;;
42084;SDS011;27746;52.228;20.890;2023-09-30T07:20:44;16.38;;;10.35;;
42084;SDS011;27746;52.228;20.890;2023-09-30T07:23:11;16.65;;;10.50;;
42084;SDS011;27746;52.228;20.890;2023-09-30T07:25:41;15.38;;;10.52;;
42084;SDS011;27746;52.228;20.890;2023-09-30T07:28:08;14.68;;;10.85;;
42084;SDS011;27746;52.228;20.890;2023-09-30T07:30:37;20.50;;;11.23;;
42084;SDS011;27746;52.228;20.890;2023-09-30T07:33:04;14.48;;;10.20;;
42084;SDS011;27746;52.228;20.890;2023-09-30T07:35:32;17.33;;;11.32;;
42084;SDS011;27746;52.228;20.890;2023-09-30T07:37:59;18.70;;;11.27;;
42084;SDS011;27746;52.228;20.890;2023-09-30T07:40:26;18.45;;;11.18;;
42084;SDS011;27746;52.228;20.890;2023-09-30T07:42:55;18.70;;;11.35;;
42084;SDS011;27746;52.228;20.890;2023-09-30T07:45:22;17.63;;;11.23;;
42084;SDS011;27746;52.228;20.890;2023-09-30T07:47:49;21.65;;;12.05;;
42084;SDS011;27746;52.228;20.890;2023-09-30T07:50:17;17.38;;;12.23;;
42084;SDS011;27746;52.228;20.890;2023-09-30T07:52:44;19.23;;;11.95;;
42084;SDS011;27746;52.228;20.890;2023-09-30T07:55:11;19.90;;;12.15;;
42084;SDS011;27746;52.228;20.890;2023-09-30T07:57:39;16.30;;;12.35;;
42084;SDS011;27746;52.228;20.890;2023-09-30T08:00:09;16.30;;;11.48;;
42084;SDS011;27746;52.228;20.890;2023-09-30T08:02:40;19.07;;;12.23;;
42084;SDS011;27746;52.228;20.890;2023-09-30T08:05:07;17.58;;;12.57;;
42084;SDS011;27746;52.228;20.890;2023-09-30T08:07:37;19.73;;;12.25;;
42084;SDS011;27746;52.228;20.890;2023-09-30T08:10:04;19.27;;;13.27;;
42084;SDS011;27746;52.228;20.890;2023-09-30T08:12:37;20.13;;;12.43;;
42084;SDS011;27746;52.228;20.890;2023-09-30T08:15:05;18.90;;;12.30;;
42084;SDS011;27746;52.228;20.890;2023-09-30T08:17:35;16.33;;;12.07;;
42084;SDS011;27746;52.228;20.890;2023-09-30T08:20:01;17.55;;;12.82;;
42084;SDS011;27746;52.228;20.890;2023-09-30T08:22:29;18.08;;;12.73;;
42084;SDS011;27746;52.228;20.890;2023-09-30T08:24:56;18.45;;;12.40;;
42084;SDS011;27746;52.228;20.890;2023-09-30T08:27:24;17.55;;;12.20;;
42084;SDS011;27746;52.228;20.890;2023-09-30T08:29:51;20.73;;;12.65;;
42084;SDS011;27746;52.228;20.890;2023-09-30T08:32:18;20.48;;;12.55;;
42084;SDS011;27746;52.228;20.890;2023-09-30T08:34:47;19.45;;;13.00;;
42084;SDS011;27746;52.228;20.890;2023-09-30T08:37:14;19.10;;;12.88;;
42084;SDS011;27746;52.228;20.890;2023-09-30T08:39:41;21.88;;;13.10;;
42084;SDS011;27746;52.228;20.890;2023-09-30T08:42:09;19.13;;;13.32;;
42084;SDS011;27746;52.228;20.890;2023-09-30T08:44:37;20.48;;;12.65;;
42084;SDS011;27746;52.228;20.890;2023-09-30T08:47:05;23.33;;;13.68;;
42084;SDS011;27746;52.228;20.890;2023-09-30T08:49:34;21.90;;;13.63;;
42084;SDS011;27746;52.228;20.890;2023-09-30T08:52:04;24.02;;;12.90;;
42084;SDS011;27746;52.228;20.890;2023-09-30T08:54:32;19.38;;;13.88;;
42084;SDS011;27746;52.228;20.890;2023-09-30T08:56:59;22.10;;;13.57;;
42084;SDS011;27746;52.228;20.890;2023-09-30T08:59:28;21.55;;;14.07;;
42084;SDS011;27746;52.228;20.890;2023-09-30T09:01:55;18.33;;;13.85;;
42084;SDS011;27746;52.228;20.890;2023-09-30T09:04:23;22.13;;;14.27;;
42084;SDS011;27746;52.228;20.890;2023-09-30T09:06:52;20.50;;;13.55;;
42084;SDS011;27746;52.228;20.890;2023-09-30T09:09:21;22.60;;;14.82;;
42084;SDS011;27746;52.228;20.890;2023-09-30T09:11:49;24.52;;;14.50;;
42084;SDS011;27746;52.228;20.890;2023-09-30T09:14:15;22.83;;;14.68;;
42084;SDS011;27746;52.228;20.890;2023-09-30T09:16:51;23.48;;;14.02;;
42084;SDS011;27746;52.228;20.890;2023-09-30T09:19:19;20.90;;;15.00;;
42084;SDS011;27746;52.228;20.890;2023-09-30T09:21:53;22.73;;;14.95;;
42084;SDS011;27746;52.228;20.890;2023-09-30T09:24:30;20.50;;;13.70;;
42084;SDS011;27746;52.228;20.890;2023-09-30T09:27:04;25.25;;;14.85;;
42084;SDS011;27746;52.228;20.890;2023-09-30T09:29:32;21.42;;;15.38;;
42084;SDS011;27746;52.228;20.890;2023-09-30T09:32:09;19.77;;;14.65;;
42084;SDS011;27746;52.228;20.890;2023-09-30T09:34:36;26.90;;;16.73;;
42084;SDS011;27746;52.228;20.890;2023-09-30T09:37:13;24.55;;;17.58;;
42084;SDS011;27746;52.228;20.890;2023-09-30T09:39:49;24.67;;;16.55;;
42084;SDS011;27746;52.228;20.890;2023-09-30T09:42:27;20.88;;;15.52;;
42084;SDS011;27746;52.228;20.890;2023-09-30T09:44:56;23.52;;;16.50;;
42084;SDS011;27746;52.228;20.890;2023-09-30T09:47:24;22.98;;;15.25;;
42084;SDS011;27746;52.228;20.890;2023-09-30T09:49:52;23.60;;;15.52;;
42084;SDS011;27746;52.228;20.890;2023-09-30T09:52:19;25.92;;;16.00;;
42084;SDS011;27746;52.228;20.890;2023-09-30T09:54:47;23.05;;;17.42;;
42084;SDS011;27746;52.228;20.890;2023-09-30T09:57:17;25.05;;;16.33;;
42084;SDS011;27746;52.228;20.890;2023-09-30T09:59:45;28.10;;;16.73;;
42084;SDS011;27746;52.228;20.890;2023-09-30T10:02:14;24.20;;;15.45;;
42084;SDS011;27746;52.228;20.890;2023-09-30T10:04:43;24.02;;;15.90;;
42084;SDS011;27746;52.228;20.890;2023-09-30T10:07:11;26.15;;;15.43;;
42084;SDS011;27746;52.228;20.890;2023-09-30T10:09:43;21.95;;;12.45;;
42084;SDS011;27746;52.228;20.890;2023-09-30T10:12:15;19.20;;;11.65;;
42084;SDS011;27746;52.228;20.890;2023-09-30T10:14:42;17.55;;;10.18;;
42084;SDS011;27746;52.228;20.890;2023-09-30T10:17:09;15.60;;;10.15;;
42084;SDS011;27746;52.228;20.890;2023-09-30T10:19:36;12.80;;;8.35;;
42084;SDS011;27746;52.228;20.890;2023-09-30T10:24:57;14.68;;;6.40;;
42084;SDS011;27746;52.228;20.890;2023-09-30T10:27:33;10.57;;;6.07;;
42084;SDS011;27746;52.228;20.890;2023-09-30T10:30:05;12.50;;;6.18;;
42084;SDS011;27746;52.228;20.890;2023-09-30T10:35:43;10.18;;;4.65;;
42084;SDS011;27746;52.228;20.890;2023-09-30T10:41:09;10.18;;;6.47;;
42084;SDS011;27746;52.228;20.890;2023-09-30T10:43:41;9.40;;;5.78;;
42084;SDS011;27746;52.228;20.890;2023-09-30T10:51:43;6.82;;;3.35;;
42084;SDS011;27746;52.228;20.890;2023-09-30T10:54:12;6.00;;;3.15;;
42084;SDS011;27746;52.228;20.890;2023-09-30T10:56:39;4.15;;;2.67;;
42084;SDS011;27746;52.228;20.890;2023-09-30T10:59:08;7.40;;;2.40;;
42084;SDS011;27746;52.228;20.890;2023-09-30T11:01:34;5.30;;;2.53;;
42084;SDS011;27746;52.228;20.890;2023-09-30T11:04:02;4.75;;;2.15;;
42084;SDS011;27746;52.228;20.890;2023-09-30T11:06:34;5.97;;;2.70;;
42084;SDS011;27746;52.228;20.890;2023-09-30T11:09:01;7.07;;;3.00;;
42084;SDS011;27746;52.228;20.890;2023-09-30T11:11:35;5.32;;;1.90;;
42084;SDS011;27746;52.228;20.890;2023-09-30T11:14:17;6.00;;;2.28;;
42084;SDS011;27746;52.228;20.890;2023-09-30T11:16:50;6.60;;;2.63;;
42084;SDS011;27746;52.228;20.890;2023-09-30T11:19:18;5.20;;;2.75;;
42084;SDS011;27746;52.228;20.890;2023-09-30T11:21:47;6.20;;;2.58;;
42084;SDS011;27746;52.228;20.890;2023-09-30T11:24:14;7.03;;;2.83;;
42084;SDS011;27746;52.228;20.890;2023-09-30T11:26:42;6.50;;;2.50;;
42084;SDS011;27746;52.228;20.890;2023-09-30T11:29:10;8.60;;;3.17;;
42084;SDS011;27746;52.228;20.890;2023-09-30T11:31:40;11.40;;;3.47;;
42084;SDS011;27746;52.228;20.890;2023-09-30T11:34:08;8.43;;;3.00;;
42084;SDS011;27746;52.228;20.890;2023-09-30T11:36:37;8.02;;;3.13;;
42084;SDS011;27746;52.228;20.890;2023-09-30T11:39:05;9.55;;;3.40;;
42084;SDS011;27746;52.228;20.890;2023-09-30T11:41:34;11.57;;;3.47;;
42084;SDS011;27746;52.228;20.890;2023-09-30T11:44:05;7.75;;;2.30;;
42084;SDS011;27746;52.228;20.890;2023-09-30T11:49:27;7.70;;;3.25;;
42084;SDS011;27746;52.228;20.890;2023-09-30T11:51:56;7.60;;;3.10;;
42084;SDS011;27746;52.228;20.890;2023-09-30T11:54:28;7.75;;;4.20;;
42084;SDS011;27746;52.228;20.890;2023-09-30T11:56:55;7.10;;;2.88;;
42084;SDS011;27746;52.228;20.890;2023-09-30T11:59:22;7.22;;;3.20;;
42084;SDS011;27746;52.228;20.890;2023-09-30T12:01:49;13.73;;;3.13;;
42084;SDS011;27746;52.228;20.890;2023-09-30T12:04:17;12.93;;;3.35;;
42084;SDS011;27746;52.228;20.890;2023-09-30T12:06:45;9.38;;;3.35;;
42084;SDS011;27746;52.228;20.890;2023-09-30T12:09:13;13.95;;;3.75;;
42084;SDS011;27746;52.228;20.890;2023-09-30T12:11:40;10.02;;;3.15;;
42084;SDS011;27746;52.228;20.890;2023-09-30T12:14:09;11.02;;;3.10;;
42084;SDS011;27746;52.228;20.890;2023-09-30T12:16:37;9.48;;;3.33;;
42084;SDS011;27746;52.228;20.890;2023-09-30T12:19:04;13.25;;;3.17;;
42084;SDS011;27746;52.228;20.890;2023-09-30T12:21:33;7.88;;;3.20;;
42084;SDS011;27746;52.228;20.890;2023-09-30T12:24:01;7.57;;;2.53;;
42084;SDS011;27746;52.228;20.890;2023-09-30T12:26:29;6.85;;;2.50;;
42084;SDS011;27746;52.228;20.890;2023-09-30T12:28:56;7.43;;;3.45;;
42084;SDS011;27746;52.228;20.890;2023-09-30T12:31:23;10.52;;;3.85;;
42084;SDS011;27746;52.228;20.890;2023-09-30T12:33:50;9.50;;;3.30;;
42084;SDS011;27746;52.228;20.890;2023-09-30T12:36:19;9.00;;;2.85;;
42084;SDS011;27746;52.228;20.890;2023-09-30T12:38:48;11.57;;;4.00;;
42084;SDS011;27746;52.228;20.890;2023-09-30T12:41:14;6.80;;;2.22;;
42084;SDS011;27746;52.228;20.890;2023-09-30T12:43:44;11.27;;;2.85;;
42084;SDS011;27746;52.228;20.890;2023-09-30T12:46:11;7.40;;;2.78;;
42084;SDS011;27746;52.228;20.890;2023-09-30T12:48:38;9.07;;;2.95;;
42084;SDS011;27746;52.228;20.890;2023-09-30T12:51:05;8.63;;;2.97;;
42084;SDS011;27746;52.228;20.890;2023-09-30T12:53:34;8.52;;;2.70;;
42084;SDS011;27746;52.228;20.890;2023-09-30T12:56:02;8.70;;;2.97;;
42084;SDS011;27746;52.228;20.890;2023-09-30T12:58:29;11.07;;;2.78;;
42084;SDS011;27746;52.228;20.890;2023-09-30T13:00:56;8.45;;;3.10;;
42084;SDS011;27746;52.228;20.890;2023-09-30T13:03:23;9.73;;;3.55;;
42084;SDS011;27746;52.228;20.890;2023-09-30T13:05:50;11.25;;;2.70;;
42084;SDS011;27746;52.228;20.890;2023-09-30T13:08:19;9.70;;;2.72;;
42084;SDS011;27746;52.228;20.890;2023-09-30T13:10:46;8.63;;;2.45;;
42084;SDS011;27746;52.228;20.890;2023-09-30T13:13:16;6.75;;;2.28;;
42084;SDS011;27746;52.228;20.890;2023-09-30T13:15:43;10.80;;;3.70;;
42084;SDS011;27746;52.228;20.890;2023-09-30T13:18:10;6.93;;;3.10;;
42084;SDS011;27746;52.228;20.890;2023-09-30T13:20:37;8.75;;;2.60;;
42084;SDS011;27746;52.228;20.890;2023-09-30T13:23:04;7.07;;;2.47;;
42084;SDS011;27746;52.228;20.890;2023-09-30T13:25:31;10.50;;;3.15;;
42084;SDS011;27746;52.228;20.890;2023-09-30T13:27:59;8.32;;;2.50;;
42084;SDS011;27746;52.228;20.890;2023-09-30T13:30:28;6.10;;;2.25;;
42084;SDS011;27746;52.228;20.890;2023-09-30T13:32:55;5.65;;;2.58;;
42084;SDS011;27746;52.228;20.890;2023-09-30T13:35:22;8.35;;;2.92;;
42084;SDS011;27746;52.228;20.890;2023-09-30T13:37:49;7.65;;;2.95;;
42084;SDS011;27746;52.228;20.890;2023-09-30T13:40:16;10.00;;;3.65;;
42084;SDS011;27746;52.228;20.890;2023-09-30T13:42:43;8.45;;;2.15;;
42084;SDS011;27746;52.228;20.890;2023-09-30T13:45:10;9.40;;;2.65;;
42084;SDS011;27746;52.228;20.890;2023-09-30T13:47:39;5.32;;;2.15;;
42084;SDS011;27746;52.228;20.890;2023-09-30T13:50:06;6.20;;;2.50;;
42084;SDS011;27746;52.228;20.890;2023-09-30T13:52:34;7.57;;;2.30;;
42084;SDS011;27746;52.228;20.890;2023-09-30T13:55:01;9.25;;;2.50;;
42084;SDS011;27746;52.228;20.890;2023-09-30T13:57:28;8.15;;;2.22;;
42084;SDS011;27746;52.228;20.890;2023-09-30T13:59:55;9.77;;;2.28;;
42084;SDS011;27746;52.228;20.890;2023-09-30T14:02:23;7.93;;;2.45;;
42084;SDS011;27746;52.228;20.890;2023-09-30T14:04:52;7.10;;;2.42;;
42084;SDS011;27746;52.228;20.890;2023-09-30T14:07:19;10.27;;;2.85;;
42084;SDS011;27746;52.228;20.890;2023-09-30T14:09:46;9.15;;;3.15;;
42084;SDS011;27746;52.228;20.890;2023-09-30T14:12:13;7.53;;;2.70;;
42084;SDS011;27746;52.228;20.890;2023-09-30T14:14:40;8.13;;;2.63;;
42084;SDS011;27746;52.228;20.890;2023-09-30T14:17:07;8.82;;;3.20;;
42084;SDS011;27746;52.228;20.890;2023-09-30T14:19:36;7.95;;;3.47;;
42084;SDS011;27746;52.228;20.890;2023-09-30T14:22:05;6.88;;;2.58;;
42084;SDS011;27746;52.228;20.890;2023-09-30T14:24:33;6.25;;;2.33;;
42084;SDS011;27746;52.228;20.890;2023-09-30T14:27:00;9.15;;;2.65;;
42084;SDS011;27746;52.228;20.890;2023-09-30T14:29:29;7.03;;;2.78;;
42084;SDS011;27746;52.228;20.890;2023-09-30T14:31:57;11.23;;;2.83;;
42084;SDS011;27746;52.228;20.890;2023-09-30T14:34:24;10.27;;;3.38;;
42084;SDS011;27746;52.228;20.890;2023-09-30T14:36:51;10.02;;;3.03;;
42084;SDS011;27746;52.228;20.890;2023-09-30T14:39:19;9.57;;;2.20;;
42084;SDS011;27746;52.228;20.890;2023-09-30T14:41:46;10.30;;;2.85;;
42084;SDS011;27746;52.228;20.890;2023-09-30T14:44:13;6.78;;;2.60;;